createdAt,value
2023-05-05T00:02:12.757Z,3.30
2023-05-05T00:05:15.826Z,2.92
2023-05-05T00:08:18.163Z,3.17
2023-05-05T00:11:20.226Z,3.10
2023-05-05T00:14:22.217Z,3.13
2023-05-05T00:17:24.344Z,3.30
2023-05-05T00:20:26.775Z,3.00
2023-05-05T00:23:28.873Z,2.65
2023-05-05T00:26:31.601Z,3.38
2023-05-05T00:29:34.212Z,2.77
2023-05-05T00:32:36.629Z,2.90
2023-05-05T00:35:38.620Z,2.95
2023-05-05T00:38:41.101Z,2.75
2023-05-05T00:41:43.190Z,2.88
2023-05-05T00:44:45.393Z,2.40
2023-05-05T00:47:51.609Z,2.87
2023-05-05T00:50:54.432Z,2.70
2023-05-05T00:53:56.882Z,3.28
2023-05-05T00:56:59.206Z,2.63
2023-05-05T01:00:01.464Z,2.90
2023-05-05T01:03:05.443Z,3.22
2023-05-05T01:06:19.297Z,2.40
2023-05-05T01:09:27.619Z,3.00
2023-05-05T01:12:45.562Z,2.87
2023-05-05T01:16:01.079Z,2.90
2023-05-05T01:19:12.310Z,3.30
2023-05-05T01:22:14.750Z,3.30
2023-05-05T01:25:22.710Z,2.80
2023-05-05T01:28:33.695Z,2.67
2023-05-05T01:31:41.944Z,2.63
2023-05-05T01:35:04.983Z,3.20
2023-05-05T01:38:12.558Z,3.20
2023-05-05T01:41:17.781Z,3.00
2023-05-05T01:44:20.489Z,3.10
2023-05-05T01:47:22.911Z,3.15
2023-05-05T01:50:25.325Z,2.80
2023-05-05T01:53:27.448Z,3.30
2023-05-05T01:56:29.413Z,3.10
2023-05-05T01:59:31.830Z,3.17
2023-05-05T02:02:35.258Z,3.42
2023-05-05T02:05:37.888Z,3.22
2023-05-05T02:08:39.975Z,3.57
2023-05-05T02:11:49.547Z,3.30
2023-05-05T02:14:51.603Z,2.90
2023-05-05T02:17:53.712Z,2.95
2023-05-05T02:20:57.241Z,3.05
2023-05-05T02:23:59.253Z,3.10
2023-05-05T02:27:02.432Z,2.70
2023-05-05T02:30:05.269Z,3.60
2023-05-05T02:33:07.649Z,2.58
2023-05-05T02:36:11.911Z,2.87
2023-05-05T02:39:27.447Z,3.73
2023-05-05T02:42:31.443Z,3.30
2023-05-05T02:45:36.155Z,3.22
2023-05-05T02:48:38.314Z,2.85
2023-05-05T02:51:40.472Z,3.20
2023-05-05T02:54:51.519Z,2.92
2023-05-05T02:57:57.668Z,2.70
2023-05-05T03:01:08.422Z,3.10
2023-05-05T03:04:18.003Z,3.07
2023-05-05T03:07:26.444Z,2.92
2023-05-05T03:10:30.523Z,3.65
2023-05-05T03:13:35.868Z,3.15
2023-05-05T03:16:38.554Z,3.60
2023-05-05T03:19:41.730Z,3.42
2023-05-05T03:22:43.969Z,3.55
2023-05-05T03:25:49.148Z,3.77
2023-05-05T03:29:03.236Z,3.80
2023-05-05T03:32:07.769Z,3.30
2023-05-05T03:35:10.425Z,3.63
2023-05-05T03:38:12.461Z,3.67
2023-05-05T03:41:16.141Z,3.88
2023-05-05T03:44:18.797Z,3.85
2023-05-05T03:47:24.549Z,4.05
2023-05-05T03:50:27.385Z,4.37
2023-05-05T03:53:31.223Z,3.60
2023-05-05T03:56:34.949Z,3.92
2023-05-05T03:59:37.100Z,4.22
2023-05-05T04:02:39.452Z,4.13
2023-05-05T04:05:42.438Z,9.68
2023-05-05T04:08:44.771Z,4.55
2023-05-05T04:11:47.612Z,3.90
2023-05-05T04:14:50.137Z,4.50
2023-05-05T04:17:52.409Z,4.63
2023-05-05T04:20:55.085Z,4.70
2023-05-05T04:23:58.609Z,4.38
2023-05-05T04:27:01.211Z,4.30
2023-05-05T04:30:05.017Z,4.35
2023-05-05T04:33:08.903Z,4.60
2023-05-05T04:36:11.617Z,4.55
2023-05-05T04:39:14.019Z,4.30
2023-05-05T04:42:16.584Z,4.22
2023-05-05T04:45:18.825Z,4.73
2023-05-05T04:48:22.273Z,4.50
2023-05-05T04:51:24.602Z,4.53
2023-05-05T04:54:26.975Z,4.20
2023-05-05T04:57:29.650Z,4.87
2023-05-05T05:00:32.717Z,4.30
2023-05-05T05:03:34.933Z,4.30
2023-05-05T05:06:37.095Z,4.82
2023-05-05T05:09:39.127Z,5.10
2023-05-05T05:12:41.782Z,4.83
2023-05-05T05:15:43.849Z,4.30
2023-05-05T05:18:45.992Z,4.60
2023-05-05T05:21:48.806Z,4.20
2023-05-05T05:24:52.324Z,4.50
2023-05-05T05:28:06.145Z,3.55
2023-05-05T05:31:14.666Z,3.80
2023-05-05T05:34:17.286Z,3.70
2023-05-05T05:37:20.994Z,3.20
2023-05-05T05:40:23.887Z,3.55
2023-05-05T05:43:25.951Z,3.70
2023-05-05T05:46:28.083Z,3.72
2023-05-05T05:49:30.618Z,3.90
2023-05-05T05:52:34.258Z,3.40
2023-05-05T05:55:37.392Z,3.08
2023-05-05T05:58:40.694Z,3.80
2023-05-05T06:01:43.464Z,3.65
2023-05-05T06:04:45.540Z,3.70
2023-05-05T06:07:48.379Z,3.33
2023-05-05T06:10:51.533Z,3.35
2023-05-05T06:13:55.870Z,4.07
2023-05-05T06:16:58.012Z,3.10
2023-05-05T06:20:02.227Z,3.23
2023-05-05T06:23:04.674Z,3.23
2023-05-05T06:26:09.229Z,3.25
2023-05-05T06:29:12.438Z,3.17
2023-05-05T06:32:15.444Z,2.80
2023-05-05T06:35:17.522Z,3.03
2023-05-05T06:38:20.104Z,2.80
2023-05-05T06:41:22.704Z,2.90
2023-05-05T06:44:25.375Z,2.83
2023-05-05T06:47:27.434Z,2.70
2023-05-05T06:50:29.512Z,2.33
2023-05-05T06:53:31.587Z,2.80
2023-05-05T06:56:33.788Z,3.30
2023-05-05T06:59:36.512Z,2.97
2023-05-05T07:02:39.004Z,3.25
2023-05-05T07:05:41.141Z,3.23
2023-05-05T07:08:43.256Z,2.87
2023-05-05T07:11:45.821Z,2.90
2023-05-05T07:14:47.966Z,3.33
2023-05-05T07:17:50.096Z,3.10
2023-05-05T07:20:52.669Z,3.03
2023-05-05T07:23:54.671Z,3.20
2023-05-05T07:26:57.522Z,2.95
2023-05-05T07:29:59.544Z,3.22
2023-05-05T07:33:01.973Z,3.28
2023-05-05T07:36:04.296Z,3.07
2023-05-05T07:39:06.836Z,3.60
2023-05-05T07:42:10.149Z,3.70
2023-05-05T07:45:12.441Z,4.57
2023-05-05T07:48:14.656Z,3.10
2023-05-05T07:51:16.760Z,3.40
2023-05-05T07:54:19.044Z,8.90
2023-05-05T07:57:21.056Z,2.90
2023-05-05T08:00:23.236Z,3.95
2023-05-05T08:03:25.942Z,3.53
2023-05-05T08:06:28.624Z,7.87
2023-05-05T08:09:30.862Z,3.40
2023-05-05T08:12:32.917Z,3.58
2023-05-05T08:15:35.538Z,3.72
2023-05-05T08:18:38.588Z,4.45
2023-05-05T08:21:40.708Z,3.60
2023-05-05T08:24:43.272Z,3.97
2023-05-05T08:27:46.052Z,3.40
2023-05-05T08:30:49.508Z,4.50
2023-05-05T08:33:51.562Z,3.35
2023-05-05T08:36:53.578Z,4.13
2023-05-05T08:39:56.865Z,4.20
2023-05-05T08:42:59.112Z,3.55
2023-05-05T08:46:01.573Z,3.60
2023-05-05T08:49:04.163Z,4.30
2023-05-05T08:52:06.260Z,3.90
2023-05-05T08:55:28.565Z,4.13
2023-05-05T08:58:30.630Z,4.13
2023-05-05T09:01:33.661Z,4.35
2023-05-05T09:04:36.290Z,4.15
2023-05-05T09:07:43.915Z,4.07
2023-05-05T09:11:01.084Z,4.10
2023-05-05T09:14:14.075Z,4.20
2023-05-05T09:17:23.536Z,4.90
2023-05-05T09:20:40.550Z,4.60
2023-05-05T09:23:42.622Z,4.50
2023-05-05T09:26:45.299Z,4.43
2023-05-05T09:29:48.971Z,4.40
2023-05-05T09:32:52.108Z,4.75
2023-05-05T09:35:55.235Z,4.40
2023-05-05T09:39:04.280Z,4.50
2023-05-05T09:42:08.532Z,4.10
2023-05-05T09:45:19.753Z,4.68
2023-05-05T09:48:26.732Z,4.07
2023-05-05T09:51:29.721Z,4.28
2023-05-05T09:54:33.651Z,3.70
2023-05-05T09:57:35.939Z,4.40
2023-05-05T10:00:38.769Z,3.95
2023-05-05T10:03:49.917Z,4.00
2023-05-05T10:06:51.995Z,4.25
2023-05-05T10:09:54.021Z,3.73
2023-05-05T10:13:02.715Z,3.97
2023-05-05T10:16:05.307Z,3.72
2023-05-05T10:19:07.980Z,3.38
2023-05-05T10:22:10.139Z,3.78
2023-05-05T10:25:16.014Z,4.00
2023-05-05T10:28:24.146Z,4.60
2023-05-05T10:31:30.349Z,3.00
2023-05-05T10:34:35.821Z,3.45
2023-05-05T10:37:38.400Z,3.40
2023-05-05T10:40:44.434Z,3.50
2023-05-05T10:43:46.896Z,4.27
2023-05-05T10:46:49.390Z,4.47
2023-05-05T10:49:55.934Z,4.63
2023-05-05T10:52:58.069Z,3.45
2023-05-05T10:56:06.441Z,4.00
2023-05-05T10:59:27.285Z,3.50
2023-05-05T11:02:30.047Z,3.80
2023-05-05T11:05:32.588Z,3.60
2023-05-05T11:08:35.506Z,4.10
2023-05-05T11:12:04.362Z,3.73
2023-05-05T11:15:25.142Z,3.70
2023-05-05T11:18:38.921Z,3.28
2023-05-05T11:21:59.461Z,3.58
2023-05-05T11:25:01.623Z,3.63
2023-05-05T11:28:10.219Z,3.47
2023-05-05T11:31:16.027Z,3.60
2023-05-05T11:34:27.997Z,4.25
2023-05-05T11:37:30.460Z,4.10
2023-05-05T11:40:32.994Z,4.15
2023-05-05T11:43:35.001Z,3.50
2023-05-05T11:46:37.877Z,3.80
2023-05-05T11:49:40.383Z,3.35
2023-05-05T11:52:43.048Z,3.38
2023-05-05T11:55:45.502Z,3.97
2023-05-05T11:58:47.973Z,3.70
2023-05-05T12:01:50.080Z,3.67
2023-05-05T12:04:52.693Z,3.80
2023-05-05T12:07:58.548Z,4.20
2023-05-05T12:11:04.338Z,4.20
2023-05-05T12:14:10.529Z,4.60
2023-05-05T12:17:12.759Z,3.87
2023-05-05T12:20:14.931Z,4.28
2023-05-05T12:23:17.502Z,3.97
2023-05-05T12:26:32.261Z,3.40
2023-05-05T12:29:41.209Z,3.77
2023-05-05T12:32:43.467Z,3.70
2023-05-05T12:35:45.721Z,3.40
2023-05-05T12:38:47.780Z,3.70
2023-05-05T12:41:49.960Z,3.65
2023-05-05T12:44:52.264Z,4.00
2023-05-05T12:47:55.216Z,4.03
2023-05-05T12:51:13.251Z,3.78
2023-05-05T12:54:15.346Z,3.35
2023-05-05T12:57:17.796Z,3.20
2023-05-05T13:00:25.716Z,3.40
2023-05-05T13:03:29.448Z,3.57
2023-05-05T13:06:32.869Z,3.30
2023-05-05T13:09:35.543Z,3.40
2023-05-05T13:12:42.246Z,3.53
2023-05-05T13:15:49.093Z,3.63
2023-05-05T13:18:52.228Z,3.17
2023-05-05T13:21:54.399Z,3.55
2023-05-05T13:24:56.398Z,3.60
2023-05-05T13:27:58.566Z,3.83
2023-05-05T13:31:01.169Z,3.70
2023-05-05T13:34:03.328Z,3.50
2023-05-05T13:37:05.954Z,3.40
2023-05-05T13:40:08.966Z,3.47
2023-05-05T13:43:11.769Z,3.28
2023-05-05T13:46:19.976Z,3.10
2023-05-05T13:49:23.185Z,3.73
2023-05-05T13:52:25.241Z,3.80
2023-05-05T13:55:28.371Z,3.30
2023-05-05T13:58:30.502Z,3.30
2023-05-05T14:01:33.030Z,3.80
2023-05-05T14:04:36.112Z,3.00
2023-05-05T14:07:38.736Z,3.22
2023-05-05T14:10:40.996Z,3.20
2023-05-05T14:13:43.714Z,3.33
2023-05-05T14:16:48.551Z,3.37
2023-05-05T14:19:52.446Z,3.20
2023-05-05T14:22:54.657Z,3.97
2023-05-05T14:25:56.753Z,3.83
2023-05-05T14:28:58.751Z,3.20
2023-05-05T14:32:00.970Z,2.87
2023-05-05T14:35:03.246Z,3.00
2023-05-05T14:38:05.656Z,3.15
2023-05-05T14:41:07.800Z,3.47
2023-05-05T14:44:10.243Z,4.28
2023-05-05T14:47:12.299Z,3.90
2023-05-05T14:50:14.394Z,3.50
2023-05-05T14:53:17.014Z,3.35
2023-05-05T14:56:21.965Z,3.20
2023-05-05T14:59:24.409Z,4.07
2023-05-05T15:02:26.947Z,4.00
2023-05-05T15:05:29.072Z,3.40
2023-05-05T15:08:31.165Z,3.80
2023-05-05T15:11:33.419Z,3.80
2023-05-05T15:14:36.795Z,3.53
2023-05-05T15:17:39.276Z,3.80
2023-05-05T15:20:41.781Z,3.37
2023-05-05T15:23:44.188Z,3.53
2023-05-05T15:26:46.242Z,3.80
2023-05-05T15:29:48.723Z,3.70
2023-05-05T15:32:51.254Z,3.73
2023-05-05T15:35:54.671Z,4.87
2023-05-05T15:38:57.341Z,3.42
2023-05-05T15:42:00.122Z,3.30
2023-05-05T15:45:02.201Z,4.50
2023-05-05T15:48:04.436Z,3.90
2023-05-05T15:51:06.987Z,3.67
2023-05-05T15:54:09.455Z,3.30
2023-05-05T15:57:11.570Z,3.83
2023-05-05T16:00:17.157Z,4.57
2023-05-05T16:03:21.282Z,4.07
2023-05-05T16:06:24.035Z,3.23
2023-05-05T16:09:37.063Z,3.70
2023-05-05T16:12:39.510Z,3.50
2023-05-05T16:15:42.130Z,3.40
2023-05-05T16:18:44.609Z,3.60
2023-05-05T16:21:48.224Z,3.93
2023-05-05T16:24:50.309Z,3.92
2023-05-05T16:27:53.766Z,3.53
2023-05-05T16:30:56.277Z,3.38
2023-05-05T16:33:58.666Z,4.07
2023-05-05T16:37:01.410Z,3.23
2023-05-05T16:40:05.506Z,3.50
2023-05-05T16:43:09.184Z,3.38
2023-05-05T16:46:12.345Z,3.60
2023-05-05T16:49:14.438Z,3.00
2023-05-05T16:52:16.628Z,3.80
2023-05-05T16:55:18.775Z,2.88
2023-05-05T16:58:21.293Z,2.97
2023-05-05T17:01:23.369Z,3.10
2023-05-05T17:04:26.069Z,3.20
2023-05-05T17:07:28.467Z,3.40
2023-05-05T17:10:30.951Z,3.80
2023-05-05T17:13:33.136Z,3.47
2023-05-05T17:16:35.741Z,4.22
2023-05-05T17:19:38.031Z,3.50
2023-05-05T17:22:40.121Z,3.37
2023-05-05T17:25:42.289Z,3.53
2023-05-05T17:28:44.752Z,3.58
2023-05-05T17:31:46.989Z,4.10
2023-05-05T17:34:49.033Z,4.27
2023-05-05T17:37:51.342Z,3.60
2023-05-05T17:40:53.346Z,4.03
2023-05-05T17:43:55.842Z,4.10
2023-05-05T17:47:06.281Z,4.20
2023-05-05T17:50:11.087Z,4.07
2023-05-05T17:53:13.443Z,3.97
2023-05-05T17:56:15.575Z,3.85
2023-05-05T17:59:18.168Z,4.72
2023-05-05T18:02:20.216Z,4.97
2023-05-05T18:05:22.560Z,5.83
2023-05-05T18:08:25.127Z,5.37
2023-05-05T18:11:28.899Z,5.25
2023-05-05T18:14:30.938Z,4.72
2023-05-05T18:17:33.080Z,5.25
2023-05-05T18:20:35.328Z,5.53
2023-05-05T18:23:38.657Z,5.60
2023-05-05T18:26:41.072Z,5.53
2023-05-05T18:29:43.192Z,6.55
2023-05-05T18:32:45.522Z,6.72
2023-05-05T18:35:47.664Z,6.90
2023-05-05T18:38:49.681Z,7.57
2023-05-05T18:41:51.803Z,7.55
2023-05-05T18:44:54.307Z,7.28
2023-05-05T18:47:56.479Z,6.72
2023-05-05T18:51:02.305Z,6.67
2023-05-05T18:54:04.489Z,6.00
2023-05-05T18:57:06.881Z,5.82
2023-05-05T19:00:09.733Z,5.20
2023-05-05T19:03:12.218Z,5.55
2023-05-05T19:06:14.868Z,5.33
2023-05-05T19:09:17.186Z,5.80
2023-05-05T19:12:19.284Z,6.50
2023-05-05T19:15:21.445Z,6.70
2023-05-05T19:18:23.786Z,6.40
2023-05-05T19:21:27.276Z,6.50
2023-05-05T19:24:29.582Z,6.40
2023-05-05T19:27:33.918Z,6.22
2023-05-05T19:30:36.235Z,6.13
2023-05-05T19:33:38.381Z,6.30
2023-05-05T19:36:40.858Z,7.07
2023-05-05T19:39:44.919Z,6.60
2023-05-05T19:42:46.825Z,6.45
2023-05-05T19:45:49.334Z,6.78
2023-05-05T19:48:51.582Z,6.32
2023-05-05T19:51:54.530Z,5.70
2023-05-05T19:54:57.039Z,6.40
2023-05-05T19:57:59.023Z,5.40
2023-05-05T20:01:01.685Z,6.00
2023-05-05T20:04:03.880Z,6.13
2023-05-05T20:07:05.948Z,6.37
2023-05-05T20:10:09.541Z,5.60
2023-05-05T20:13:12.101Z,5.57
2023-05-05T20:16:14.821Z,5.30
2023-05-05T20:19:29.932Z,5.72
2023-05-05T20:22:32.007Z,5.97
2023-05-05T20:25:34.063Z,6.00
2023-05-05T20:28:39.045Z,5.95
2023-05-05T20:31:41.300Z,5.97
2023-05-05T20:34:43.355Z,5.95
2023-05-05T20:37:45.961Z,6.67
2023-05-05T20:40:47.927Z,6.40
2023-05-05T20:43:50.136Z,7.82
2023-05-05T20:46:52.231Z,6.90
2023-05-05T20:49:54.411Z,7.13
2023-05-05T20:52:56.480Z,8.73
2023-05-05T20:55:58.623Z,7.23
2023-05-05T20:59:00.938Z,7.43
2023-05-05T21:02:03.152Z,7.55
2023-05-05T21:05:05.357Z,7.72
2023-05-05T21:08:07.454Z,7.93
2023-05-05T21:11:09.899Z,7.57
2023-05-05T21:14:11.990Z,8.00
2023-05-05T21:17:14.257Z,7.93
2023-05-05T21:20:17.198Z,7.93
2023-05-05T21:23:19.528Z,6.47
2023-05-05T21:26:21.830Z,7.27
2023-05-05T21:29:27.101Z,7.13
2023-05-05T21:32:29.412Z,7.10
2023-05-05T21:35:31.513Z,6.80
2023-05-05T21:38:33.709Z,6.70
2023-05-05T21:41:35.642Z,6.53
2023-05-05T21:44:37.669Z,7.13
2023-05-05T21:47:40.185Z,7.28
2023-05-05T21:50:43.111Z,6.72
2023-05-05T21:53:46.260Z,6.27
2023-05-05T21:56:48.166Z,6.77
2023-05-05T21:59:50.921Z,6.22
2023-05-05T22:02:53.388Z,6.60
2023-05-05T22:05:55.527Z,6.60
2023-05-05T22:08:58.008Z,6.40
2023-05-05T22:12:00.524Z,6.03
2023-05-05T22:15:02.577Z,7.13
2023-05-05T22:18:04.623Z,6.18
2023-05-05T22:21:07.014Z,6.18
2023-05-05T22:24:09.335Z,6.53
2023-05-05T22:27:11.454Z,5.90
2023-05-05T22:30:13.921Z,6.47
2023-05-05T22:33:16.725Z,6.50
2023-05-05T22:36:18.889Z,6.22
2023-05-05T22:39:20.929Z,6.10
2023-05-05T22:42:22.929Z,6.90
2023-05-05T22:45:24.997Z,6.13
2023-05-05T22:48:26.972Z,5.97
2023-05-05T22:51:29.506Z,5.53
2023-05-05T22:54:32.240Z,5.70
2023-05-05T22:57:34.632Z,5.80
2023-05-05T23:00:37.121Z,6.22
2023-05-05T23:03:39.225Z,5.80
2023-05-05T23:06:41.899Z,6.55
2023-05-05T23:09:43.871Z,5.93
2023-05-05T23:12:46.041Z,6.07
2023-05-05T23:15:48.012Z,6.40
2023-05-05T23:18:50.060Z,6.18
2023-05-05T23:21:53.615Z,6.20
2023-05-05T23:24:55.832Z,5.90
2023-05-05T23:27:58.229Z,6.67
2023-05-05T23:31:00.583Z,5.97
2023-05-05T23:34:02.682Z,6.47
2023-05-05T23:37:06.178Z,6.53
2023-05-05T23:40:08.844Z,6.50
2023-05-05T23:43:12.060Z,6.83
2023-05-05T23:46:14.212Z,6.85
2023-05-05T23:49:16.227Z,6.90
2023-05-05T23:52:18.174Z,6.95
2023-05-05T23:55:20.684Z,7.23
2023-05-05T23:58:23.244Z,6.60
